sensor_id;sensor_type;location;lat;lon;timestamp;pressure;altitude;pressure_sealevel;temperature;humidity
69780;BME280;57052;55.602;38.096;2022-12-20T00:00:00;101523.34;;;-0.81;72.53
69780;BME280;57052;55.602;38.096;2022-12-20T00:02:26;101534.47;;;-0.69;72.57
69780;BME280;57052;55.602;38.096;2022-12-20T00:04:52;101529.47;;;-0.64;72.44
69780;BME280;57052;55.602;38.096;2022-12-20T00:07:17;101537.13;;;-0.61;72.38
69780;BME280;57052;55.602;38.096;2022-12-20T00:09:43;101552.78;;;-0.58;72.41
69780;BME280;57052;55.602;38.096;2022-12-20T00:12:08;101554.72;;;-0.60;72.24
69780;BME280;57052;55.602;38.096;2022-12-20T00:14:34;101547.94;;;-0.71;72.04
69780;BME280;57052;55.602;38.096;2022-12-20T00:17:00;101563.72;;;-0.61;71.85
69780;BME280;57052;55.602;38.096;2022-12-20T00:19:25;101556.25;;;-0.66;71.87
69780;BME280;57052;55.602;38.096;2022-12-20T00:21:51;101544.44;;;-0.71;72.09
69780;BME280;57052;55.602;38.096;2022-12-20T00:24:16;101528.50;;;-0.71;72.33
69780;BME280;57052;55.602;38.096;2022-12-20T00:26:43;101514.03;;;-0.69;72.50
69780;BME280;57052;55.602;38.096;2022-12-20T00:29:08;101514.50;;;-0.65;72.13
69780;BME280;57052;55.602;38.096;2022-12-20T00:31:34;101521.19;;;-0.61;71.89
69780;BME280;57052;55.602;38.096;2022-12-20T00:34:00;101543.63;;;-0.55;71.84
69780;BME280;57052;55.602;38.096;2022-12-20T00:36:27;101539.47;;;-0.66;71.76
69780;BME280;57052;55.602;38.096;2022-12-20T00:38:54;101534.13;;;-0.74;72.25
69780;BME280;57052;55.602;38.096;2022-12-20T00:41:24;101535.81;;;-0.73;71.93
69780;BME280;57052;55.602;38.096;2022-12-20T00:43:50;101538.78;;;-0.76;72.32
69780;BME280;57052;55.602;38.096;2022-12-20T00:46:17;101534.63;;;-0.71;72.22
69780;BME280;57052;55.602;38.096;2022-12-20T00:48:44;101525.00;;;-0.72;72.00
69780;BME280;57052;55.602;38.096;2022-12-20T00:51:12;101509.22;;;-0.73;72.05
69780;BME280;57052;55.602;38.096;2022-12-20T00:53:39;101517.19;;;-0.73;71.98
69780;BME280;57052;55.602;38.096;2022-12-20T00:56:05;101521.00;;;-0.68;72.05
69780;BME280;57052;55.602;38.096;2022-12-20T00:58:32;101508.38;;;-0.66;72.19
69780;BME280;57052;55.602;38.096;2022-12-20T01:00:58;101508.38;;;-0.66;72.05
69780;BME280;57052;55.602;38.096;2022-12-20T01:03:25;101493.44;;;-0.67;72.00
69780;BME280;57052;55.602;38.096;2022-12-20T01:05:57;101488.75;;;-0.65;71.59
69780;BME280;57052;55.602;38.096;2022-12-20T01:08:24;101484.47;;;-0.74;71.74
69780;BME280;57052;55.602;38.096;2022-12-20T01:13:32;101464.19;;;-0.75;71.85
69780;BME280;57052;55.602;38.096;2022-12-20T01:16:10;101454.22;;;-0.81;71.81
69780;BME280;57052;55.602;38.096;2022-12-20T01:18:36;101446.06;;;-0.79;71.81
69780;BME280;57052;55.602;38.096;2022-12-20T01:21:07;101460.84;;;-0.77;71.71
69780;BME280;57052;55.602;38.096;2022-12-20T01:23:34;101464.19;;;-0.75;71.59
69780;BME280;57052;55.602;38.096;2022-12-20T01:26:01;101469.47;;;-0.83;71.59
69780;BME280;57052;55.602;38.096;2022-12-20T01:28:29;101461.69;;;-0.84;71.49
69780;BME280;57052;55.602;38.096;2022-12-20T01:30:56;101454.38;;;-0.98;72.02
69780;BME280;57052;55.602;38.096;2022-12-20T01:33:22;101473.47;;;-1.03;71.73
69780;BME280;57052;55.602;38.096;2022-12-20T01:35:56;101488.56;;;-1.11;71.74
69780;BME280;57052;55.602;38.096;2022-12-20T01:38:22;101519.94;;;-1.07;71.63
69780;BME280;57052;55.602;38.096;2022-12-20T01:40:48;101533.88;;;-1.21;71.90
69780;BME280;57052;55.602;38.096;2022-12-20T01:43:14;101486.72;;;-1.19;71.67
69780;BME280;57052;55.602;38.096;2022-12-20T01:45:41;101455.00;;;-1.20;71.60
69780;BME280;57052;55.602;38.096;2022-12-20T01:48:08;101435.59;;;-1.13;71.63
69780;BME280;57052;55.602;38.096;2022-12-20T01:50:34;101453.88;;;-1.02;71.66
69780;BME280;57052;55.602;38.096;2022-12-20T01:53:00;101434.75;;;-1.13;71.62
69780;BME280;57052;55.602;38.096;2022-12-20T01:55:29;101453.69;;;-1.08;71.28
69780;BME280;57052;55.602;38.096;2022-12-20T01:58:05;101463.31;;;-1.15;71.32
69780;BME280;57052;55.602;38.096;2022-12-20T02:00:32;101454.84;;;-1.19;71.55
69780;BME280;57052;55.602;38.096;2022-12-20T02:03:00;101443.56;;;-1.21;71.31
69780;BME280;57052;55.602;38.096;2022-12-20T02:05:27;101450.19;;;-1.17;71.71
69780;BME280;57052;55.602;38.096;2022-12-20T02:07:54;101461.66;;;-1.08;71.73
69780;BME280;57052;55.602;38.096;2022-12-20T02:10:23;101409.81;;;-1.45;71.47
69780;BME280;57052;55.602;38.096;2022-12-20T02:12:56;101454.84;;;-1.19;71.84
69780;BME280;57052;55.602;38.096;2022-12-20T02:18:29;101453.03;;;-1.18;71.48
69780;BME280;57052;55.602;38.096;2022-12-20T02:21:58;101443.06;;;-1.16;71.76
69780;BME280;57052;55.602;38.096;2022-12-20T02:24:18;101437.56;;;-1.23;72.10
69780;BME280;57052;55.602;38.096;2022-12-20T02:32:39;101434.72;;;-1.46;71.79
69780;BME280;57052;55.602;38.096;2022-12-20T02:35:09;101435.34;;;-1.52;72.18
69780;BME280;57052;55.602;38.096;2022-12-20T02:37:35;101441.16;;;-1.56;72.02
69780;BME280;57052;55.602;38.096;2022-12-20T02:40:01;101442.94;;;-1.65;72.31
69780;BME280;57052;55.602;38.096;2022-12-20T02:42:30;101423.72;;;-1.59;72.20
69780;BME280;57052;55.602;38.096;2022-12-20T02:45:05;101427.63;;;-1.79;72.22
69780;BME280;57052;55.602;38.096;2022-12-20T02:47:48;101436.13;;;-1.67;72.20
69780;BME280;57052;55.602;38.096;2022-12-20T02:50:21;101422.00;;;-1.76;72.37
69780;BME280;57052;55.602;38.096;2022-12-20T02:52:48;101409.09;;;-1.71;72.16
69780;BME280;57052;55.602;38.096;2022-12-20T02:55:15;101418.19;;;-1.65;71.81
69780;BME280;57052;55.602;38.096;2022-12-20T02:58:05;101411.25;;;-1.66;72.06
69780;BME280;57052;55.602;38.096;2022-12-20T03:00:38;101411.06;;;-1.73;71.57
69780;BME280;57052;55.602;38.096;2022-12-20T03:03:05;101398.25;;;-1.77;71.85
69780;BME280;57052;55.602;38.096;2022-12-20T03:05:52;101412.38;;;-1.77;71.93
69780;BME280;57052;55.602;38.096;2022-12-20T03:08:19;101418.69;;;-1.78;71.49
69780;BME280;57052;55.602;38.096;2022-12-20T03:10:45;101396.75;;;-1.80;71.74
69780;BME280;57052;55.602;38.096;2022-12-20T03:13:10;101383.81;;;-1.91;71.50
69780;BME280;57052;55.602;38.096;2022-12-20T03:15:36;101401.53;;;-1.91;71.93
69780;BME280;57052;55.602;38.096;2022-12-20T03:18:02;101400.03;;;-1.94;71.60
69780;BME280;57052;55.602;38.096;2022-12-20T03:20:28;101404.03;;;-1.90;71.32
69780;BME280;57052;55.602;38.096;2022-12-20T03:22:54;101400.22;;;-1.96;71.52
69780;BME280;57052;55.602;38.096;2022-12-20T03:25:19;101379.09;;;-2.05;71.39
69780;BME280;57052;55.602;38.096;2022-12-20T03:27:45;101385.41;;;-2.06;71.13
69780;BME280;57052;55.602;38.096;2022-12-20T03:30:32;101377.44;;;-2.06;71.31
69780;BME280;57052;55.602;38.096;2022-12-20T03:33:01;101362.47;;;-2.15;71.25
69780;BME280;57052;55.602;38.096;2022-12-20T03:35:26;101374.75;;;-2.14;71.16
69780;BME280;57052;55.602;38.096;2022-12-20T03:37:52;101372.28;;;-2.16;71.18
69780;BME280;57052;55.602;38.096;2022-12-20T03:40:18;101370.59;;;-2.17;70.89
69780;BME280;57052;55.602;38.096;2022-12-20T03:42:43;101373.44;;;-2.18;70.76
69780;BME280;57052;55.602;38.096;2022-12-20T03:45:09;101360.78;;;-2.24;70.61
69780;BME280;57052;55.602;38.096;2022-12-20T03:47:35;101341.69;;;-2.36;70.65
69780;BME280;57052;55.602;38.096;2022-12-20T03:50:00;101338.50;;;-2.39;70.91
69780;BME280;57052;55.602;38.096;2022-12-20T03:52:26;101358.94;;;-2.32;70.59
69780;BME280;57052;55.602;38.096;2022-12-20T03:54:52;101357.25;;;-2.33;70.34
69780;BME280;57052;55.602;38.096;2022-12-20T03:57:17;101347.66;;;-2.34;70.57
69780;BME280;57052;55.602;38.096;2022-12-20T03:59:43;101336.69;;;-2.39;70.30
69780;BME280;57052;55.602;38.096;2022-12-20T04:02:09;101344.44;;;-2.45;70.78
69780;BME280;57052;55.602;38.096;2022-12-20T04:04:34;101331.31;;;-2.55;70.53
69780;BME280;57052;55.602;38.096;2022-12-20T04:07:00;101337.97;;;-2.51;70.19
69780;BME280;57052;55.602;38.096;2022-12-20T04:09:25;101324.50;;;-2.58;70.45
69780;BME280;57052;55.602;38.096;2022-12-20T04:11:51;101310.22;;;-2.65;70.34
69780;BME280;57052;55.602;38.096;2022-12-20T04:14:17;101314.84;;;-2.67;70.09
69780;BME280;57052;55.602;38.096;2022-12-20T04:16:42;101319.00;;;-2.64;70.12
69780;BME280;57052;55.602;38.096;2022-12-20T04:19:08;101318.72;;;-2.61;70.26
69780;BME280;57052;55.602;38.096;2022-12-20T04:21:34;101318.53;;;-2.60;69.86
69780;BME280;57052;55.602;38.096;2022-12-20T04:24:02;101299.13;;;-2.68;69.90
69780;BME280;57052;55.602;38.096;2022-12-20T04:26:29;101303.38;;;-2.75;70.06
69780;BME280;57052;55.602;38.096;2022-12-20T04:28:54;101308.53;;;-2.74;69.56
69780;BME280;57052;55.602;38.096;2022-12-20T04:31:20;101311.31;;;-2.75;69.46
69780;BME280;57052;55.602;38.096;2022-12-20T04:33:46;101294.81;;;-2.95;69.62
69780;BME280;57052;55.602;38.096;2022-12-20T04:36:13;101304.94;;;-2.90;69.18
69780;BME280;57052;55.602;38.096;2022-12-20T04:38:39;101299.81;;;-2.92;69.37
69780;BME280;57052;55.602;38.096;2022-12-20T04:41:05;101309.38;;;-2.99;69.67
69780;BME280;57052;55.602;38.096;2022-12-20T04:43:30;101294.72;;;-3.11;68.94
69780;BME280;57052;55.602;38.096;2022-12-20T04:45:56;101291.72;;;-3.16;69.17
69780;BME280;57052;55.602;38.096;2022-12-20T04:48:24;101304.53;;;-3.03;69.36
69780;BME280;57052;55.602;38.096;2022-12-20T04:50:54;101291.25;;;-3.11;69.22
69780;BME280;57052;55.602;38.096;2022-12-20T04:53:21;101308.53;;;-2.99;68.80
69780;BME280;57052;55.602;38.096;2022-12-20T04:56:05;101281.78;;;-3.14;68.43
69780;BME280;57052;55.602;38.096;2022-12-20T04:58:31;101314.66;;;-2.99;68.85
69780;BME280;57052;55.602;38.096;2022-12-20T05:00:57;101313.28;;;-3.03;68.47
69780;BME280;57052;55.602;38.096;2022-12-20T05:03:24;101305.81;;;-3.07;68.16
69780;BME280;57052;55.602;38.096;2022-12-20T05:05:50;101310.88;;;-2.96;68.48
69780;BME280;57052;55.602;38.096;2022-12-20T05:08:16;101291.31;;;-3.03;68.10
69780;BME280;57052;55.602;38.096;2022-12-20T05:10:42;101285.47;;;-3.07;68.21
69780;BME280;57052;55.602;38.096;2022-12-20T05:13:08;101282.28;;;-3.10;67.88
69780;BME280;57052;55.602;38.096;2022-12-20T05:15:34;101294.72;;;-3.11;67.75
69780;BME280;57052;55.602;38.096;2022-12-20T05:18:00;101272.94;;;-3.22;67.89
69780;BME280;57052;55.602;38.096;2022-12-20T05:20:26;101281.44;;;-3.19;68.21
69780;BME280;57052;55.602;38.096;2022-12-20T05:22:52;101279.69;;;-3.28;68.27
69780;BME280;57052;55.602;38.096;2022-12-20T05:25:42;101264.53;;;-3.44;67.41
69780;BME280;57052;55.602;38.096;2022-12-20T05:28:35;101261.94;;;-3.36;67.53
69780;BME280;57052;55.602;38.096;2022-12-20T05:31:01;101265.78;;;-3.30;67.92
69780;BME280;57052;55.602;38.096;2022-12-20T05:33:27;101274.75;;;-3.23;68.24
69780;BME280;57052;55.602;38.096;2022-12-20T05:35:53;101264.50;;;-3.26;68.22
69780;BME280;57052;55.602;38.096;2022-12-20T05:38:19;101260.78;;;-3.33;67.97
69780;BME280;57052;55.602;38.096;2022-12-20T05:40:47;101268.38;;;-3.38;67.45
69780;BME280;57052;55.602;38.096;2022-12-20T05:43:14;101268.00;;;-3.43;67.38
69780;BME280;57052;55.602;38.096;2022-12-20T05:45:40;101253.22;;;-3.54;67.62
69780;BME280;57052;55.602;38.096;2022-12-20T05:48:05;101254.09;;;-3.45;67.82
69780;BME280;57052;55.602;38.096;2022-12-20T05:50:31;101255.22;;;-3.48;67.47
69780;BME280;57052;55.602;38.096;2022-12-20T05:52:56;101236.50;;;-3.54;67.52
69780;BME280;57052;55.602;38.096;2022-12-20T05:55:22;101241.88;;;-3.46;67.57
69780;BME280;57052;55.602;38.096;2022-12-20T05:57:48;101216.78;;;-3.60;67.53
69780;BME280;57052;55.602;38.096;2022-12-20T06:00:13;101224.63;;;-3.50;67.25
69780;BME280;57052;55.602;38.096;2022-12-20T06:02:39;101218.44;;;-3.59;67.35
69780;BME280;57052;55.602;38.096;2022-12-20T06:05:05;101228.38;;;-3.61;67.27
69780;BME280;57052;55.602;38.096;2022-12-20T06:07:31;101208.03;;;-3.78;67.22
69780;BME280;57052;55.602;38.096;2022-12-20T06:09:57;101230.78;;;-3.67;67.04
69780;BME280;57052;55.602;38.096;2022-12-20T06:12:23;101227.16;;;-3.66;67.46
69780;BME280;57052;55.602;38.096;2022-12-20T06:14:49;101208.88;;;-3.77;66.98
69780;BME280;57052;55.602;38.096;2022-12-20T06:17:15;101217.47;;;-3.75;67.33
69780;BME280;57052;55.602;38.096;2022-12-20T06:19:41;101208.34;;;-3.81;66.75
69780;BME280;57052;55.602;38.096;2022-12-20T06:22:08;101215.53;;;-3.73;67.02
69780;BME280;57052;55.602;38.096;2022-12-20T06:24:34;101215.66;;;-3.75;66.51
69780;BME280;57052;55.602;38.096;2022-12-20T06:27:00;101212.03;;;-3.74;66.89
69780;BME280;57052;55.602;38.096;2022-12-20T06:29:26;101213.38;;;-3.70;66.63
69780;BME280;57052;55.602;38.096;2022-12-20T06:31:52;101210.44;;;-3.67;66.71
69780;BME280;57052;55.602;38.096;2022-12-20T06:34:17;101216.72;;;-3.68;66.76
69780;BME280;57052;55.602;38.096;2022-12-20T06:36:43;101227.66;;;-3.63;67.03
69780;BME280;57052;55.602;38.096;2022-12-20T06:39:09;101225.94;;;-3.72;66.68
69780;BME280;57052;55.602;38.096;2022-12-20T06:41:35;101220.66;;;-3.72;66.29
69780;BME280;57052;55.602;38.096;2022-12-20T06:44:01;101216.19;;;-3.71;66.60
69780;BME280;57052;55.602;38.096;2022-12-20T06:46:26;101206.53;;;-3.80;66.39
69780;BME280;57052;55.602;38.096;2022-12-20T06:48:55;101201.41;;;-3.82;66.14
69780;BME280;57052;55.602;38.096;2022-12-20T06:51:20;101198.09;;;-3.84;66.46
69780;BME280;57052;55.602;38.096;2022-12-20T06:53:46;101186.97;;;-3.88;66.44
69780;BME280;57052;55.602;38.096;2022-12-20T06:56:12;101190.34;;;-3.77;66.36
69780;BME280;57052;55.602;38.096;2022-12-20T06:58:37;101186.88;;;-3.78;66.18
69780;BME280;57052;55.602;38.096;2022-12-20T07:01:03;101181.16;;;-3.73;66.12
69780;BME280;57052;55.602;38.096;2022-12-20T07:03:28;101158.41;;;-3.84;66.45
69780;BME280;57052;55.602;38.096;2022-12-20T07:05:54;101167.69;;;-3.80;66.28
69780;BME280;57052;55.602;38.096;2022-12-20T07:08:21;101175.13;;;-3.83;65.99
69780;BME280;57052;55.602;38.096;2022-12-20T07:10:47;101181.75;;;-3.79;65.83
69780;BME280;57052;55.602;38.096;2022-12-20T07:13:12;101171.84;;;-3.77;65.92
69780;BME280;57052;55.602;38.096;2022-12-20T07:15:38;101170.56;;;-3.73;65.81
69780;BME280;57052;55.602;38.096;2022-12-20T07:18:04;101144.72;;;-3.79;65.91
69780;BME280;57052;55.602;38.096;2022-12-20T07:20:31;101156.28;;;-3.80;66.18
69780;BME280;57052;55.602;38.096;2022-12-20T07:22:57;101157.63;;;-3.76;65.78
69780;BME280;57052;55.602;38.096;2022-12-20T07:25:22;101144.56;;;-3.78;65.88
69780;BME280;57052;55.602;38.096;2022-12-20T07:27:50;101137.25;;;-3.84;65.75
69780;BME280;57052;55.602;38.096;2022-12-20T07:30:19;101135.44;;;-3.83;65.73
69780;BME280;57052;55.602;38.096;2022-12-20T07:32:48;101128.94;;;-3.89;65.62
69780;BME280;57052;55.602;38.096;2022-12-20T07:35:14;101114.72;;;-3.88;65.41
69780;BME280;57052;55.602;38.096;2022-12-20T07:37:40;101117.06;;;-3.85;65.34
69780;BME280;57052;55.602;38.096;2022-12-20T07:40:06;101116.97;;;-3.75;65.17
69780;BME280;57052;55.602;38.096;2022-12-20T07:42:32;101097.09;;;-3.79;65.21
69780;BME280;57052;55.602;38.096;2022-12-20T07:44:58;101109.03;;;-3.75;65.12
69780;BME280;57052;55.602;38.096;2022-12-20T07:47:24;101093.63;;;-3.80;65.27
69780;BME280;57052;55.602;38.096;2022-12-20T07:49:49;101080.22;;;-3.86;65.29
69780;BME280;57052;55.602;38.096;2022-12-20T07:52:16;101077.47;;;-3.77;65.17
69780;BME280;57052;55.602;38.096;2022-12-20T07:54:48;101052.69;;;-3.76;65.06
69780;BME280;57052;55.602;38.096;2022-12-20T07:57:22;101054.38;;;-3.67;64.39
69780;BME280;57052;55.602;38.096;2022-12-20T07:59:53;101041.09;;;-3.75;64.62
69780;BME280;57052;55.602;38.096;2022-12-20T08:02:36;101039.28;;;-3.74;62.92
69780;BME280;57052;55.602;38.096;2022-12-20T08:05:06;101035.44;;;-3.80;64.43
69780;BME280;57052;55.602;38.096;2022-12-20T08:07:33;101037.25;;;-3.80;64.32
69780;BME280;57052;55.602;38.096;2022-12-20T08:09:59;101039.59;;;-3.77;64.44
69780;BME280;57052;55.602;38.096;2022-12-20T08:12:27;101015.13;;;-3.79;64.09
69780;BME280;57052;55.602;38.096;2022-12-20T08:14:53;101030.38;;;-3.73;64.13
69780;BME280;57052;55.602;38.096;2022-12-20T08:17:21;101013.00;;;-3.76;64.02
69780;BME280;57052;55.602;38.096;2022-12-20T08:19:47;101021.16;;;-3.61;63.83
69780;BME280;57052;55.602;38.096;2022-12-20T08:22:16;101019.50;;;-3.62;64.22
69780;BME280;57052;55.602;38.096;2022-12-20T08:24:42;101018.66;;;-3.63;64.08
69780;BME280;57052;55.602;38.096;2022-12-20T08:27:08;101004.47;;;-3.62;64.02
69780;BME280;57052;55.602;38.096;2022-12-20T08:29:33;101006.78;;;-3.59;63.75
69780;BME280;57052;55.602;38.096;2022-12-20T08:31:59;100989.41;;;-3.61;63.86
69780;BME280;57052;55.602;38.096;2022-12-20T08:34:25;100973.84;;;-3.64;64.17
69780;BME280;57052;55.602;38.096;2022-12-20T08:36:51;100995.41;;;-3.51;63.59
69780;BME280;57052;55.602;38.096;2022-12-20T08:39:16;100985.41;;;-3.65;64.08
69780;BME280;57052;55.602;38.096;2022-12-20T08:41:42;100983.91;;;-3.68;63.66
69780;BME280;57052;55.602;38.096;2022-12-20T08:44:07;100967.34;;;-3.78;63.78
69780;BME280;57052;55.602;38.096;2022-12-20T08:46:35;100979.09;;;-3.72;63.85
69780;BME280;57052;55.602;38.096;2022-12-20T08:49:02;100966.72;;;-3.72;63.45
69780;BME280;57052;55.602;38.096;2022-12-20T08:51:28;100953.50;;;-3.72;63.44
69780;BME280;57052;55.602;38.096;2022-12-20T08:53:54;100955.84;;;-3.61;63.52
69780;BME280;57052;55.602;38.096;2022-12-20T08:56:20;100950.78;;;-3.46;63.67
69780;BME280;57052;55.602;38.096;2022-12-20T08:58:49;100962.03;;;-3.36;63.02
69780;BME280;57052;55.602;38.096;2022-12-20T09:01:18;100956.75;;;-3.28;62.78
69780;BME280;57052;55.602;38.096;2022-12-20T09:03:44;100956.44;;;-3.17;62.57
69780;BME280;57052;55.602;38.096;2022-12-20T09:06:18;100953.16;;;-3.11;62.98
69780;BME280;57052;55.602;38.096;2022-12-20T09:08:45;100936.09;;;-3.16;62.24
69780;BME280;57052;55.602;38.096;2022-12-20T09:11:16;100934.94;;;-2.98;62.86
69780;BME280;57052;55.602;38.096;2022-12-20T09:13:43;100924.22;;;-2.88;62.59
69780;BME280;57052;55.602;38.096;2022-12-20T09:16:14;100912.59;;;-2.87;62.18
69780;BME280;57052;55.602;38.096;2022-12-20T09:18:40;100916.41;;;-2.74;61.72
69780;BME280;57052;55.602;38.096;2022-12-20T09:21:07;100906.63;;;-2.65;61.50
69780;BME280;57052;55.602;38.096;2022-12-20T09:23:34;100892.41;;;-2.72;61.23
69780;BME280;57052;55.602;38.096;2022-12-20T09:26:02;100877.00;;;-2.69;61.26
69780;BME280;57052;55.602;38.096;2022-12-20T09:28:29;100885.22;;;-2.55;61.35
69780;BME280;57052;55.602;38.096;2022-12-20T09:30:59;100871.50;;;-2.51;60.65
69780;BME280;57052;55.602;38.096;2022-12-20T09:33:25;100874.59;;;-2.31;61.04
69780;BME280;57052;55.602;38.096;2022-12-20T09:35:51;100851.09;;;-2.50;60.90
69780;BME280;57052;55.602;38.096;2022-12-20T09:38:16;100849.38;;;-2.27;60.70
69780;BME280;57052;55.602;38.096;2022-12-20T09:40:50;100844.34;;;-2.14;59.43
69780;BME280;57052;55.602;38.096;2022-12-20T09:43:18;100839.00;;;-1.98;60.67
69780;BME280;57052;55.602;38.096;2022-12-20T09:45:46;100826.84;;;-1.92;60.50
69780;BME280;57052;55.602;38.096;2022-12-20T09:48:22;100831.16;;;-1.91;58.94
69780;BME280;57052;55.602;38.096;2022-12-20T09:53:54;100835.09;;;-1.87;57.69
69780;BME280;57052;55.602;38.096;2022-12-20T09:56:29;100829.00;;;-1.88;59.46
69780;BME280;57052;55.602;38.096;2022-12-20T10:01:24;100821.47;;;-2.15;59.28
69780;BME280;57052;55.602;38.096;2022-12-20T10:03:54;100819.53;;;-2.21;59.75
69780;BME280;57052;55.602;38.096;2022-12-20T10:06:39;100813.91;;;-2.18;58.61
69780;BME280;57052;55.602;38.096;2022-12-20T10:09:19;100804.59;;;-2.14;58.63
69780;BME280;57052;55.602;38.096;2022-12-20T10:21:10;100780.50;;;-2.05;58.01
69780;BME280;57052;55.602;38.096;2022-12-20T10:23:26;100780.72;;;-2.14;57.61
69780;BME280;57052;55.602;38.096;2022-12-20T10:25:56;100775.97;;;-2.27;60.32
69780;BME280;57052;55.602;38.096;2022-12-20T10:28:30;100775.00;;;-2.26;59.18
69780;BME280;57052;55.602;38.096;2022-12-20T10:31:15;100777.09;;;-2.21;58.12
69780;BME280;57052;55.602;38.096;2022-12-20T10:33:41;100771.63;;;-2.20;60.12
69780;BME280;57052;55.602;38.096;2022-12-20T10:36:26;100757.19;;;-2.17;58.03
69780;BME280;57052;55.602;38.096;2022-12-20T10:38:57;100744.75;;;-2.17;59.37
69780;BME280;57052;55.602;38.096;2022-12-20T10:41:49;100755.38;;;-2.17;57.44
69780;BME280;57052;55.602;38.096;2022-12-20T10:44:24;100740.81;;;-2.21;59.24
69780;BME280;57052;55.602;38.096;2022-12-20T10:46:56;100730.72;;;-2.25;58.90
69780;BME280;57052;55.602;38.096;2022-12-20T10:49:36;100715.53;;;-2.31;58.92
69780;BME280;57052;55.602;38.096;2022-12-20T10:54:36;100717.06;;;-2.45;60.10
69780;BME280;57052;55.602;38.096;2022-12-20T11:00:05;100702.75;;;-2.58;57.31
69780;BME280;57052;55.602;38.096;2022-12-20T11:02:35;100699.47;;;-2.61;60.22
69780;BME280;57052;55.602;38.096;2022-12-20T11:07:57;100675.03;;;-2.79;58.49
69780;BME280;57052;55.602;38.096;2022-12-20T11:10:28;100665.59;;;-2.81;59.90
69780;BME280;57052;55.602;38.096;2022-12-20T11:13:02;100684.59;;;-2.78;58.86
69780;BME280;57052;55.602;38.096;2022-12-20T11:15:32;100688.91;;;-2.77;60.03
69780;BME280;57052;55.602;38.096;2022-12-20T11:18:08;100690.22;;;-2.73;59.65
69780;BME280;57052;55.602;38.096;2022-12-20T11:20:45;100681.78;;;-2.68;59.76
69780;BME280;57052;55.602;38.096;2022-12-20T11:37:13;100663.72;;;-2.73;58.65
69780;BME280;57052;55.602;38.096;2022-12-20T11:44:52;100665.16;;;-2.62;60.46
69780;BME280;57052;55.602;38.096;2022-12-20T11:52:46;100653.66;;;-2.77;59.47
69780;BME280;57052;55.602;38.096;2022-12-20T11:55:27;100653.13;;;-2.73;60.57
69780;BME280;57052;55.602;38.096;2022-12-20T11:58:27;100659.59;;;-2.75;58.73
69780;BME280;57052;55.602;38.096;2022-12-20T12:01:11;100653.38;;;-2.90;60.01
69780;BME280;57052;55.602;38.096;2022-12-20T12:03:41;100655.25;;;-2.99;60.43
69780;BME280;57052;55.602;38.096;2022-12-20T12:06:24;100654.22;;;-2.98;59.43
69780;BME280;57052;55.602;38.096;2022-12-20T12:12:25;100650.19;;;-3.16;58.81
69780;BME280;57052;55.602;38.096;2022-12-20T12:15:05;100654.34;;;-3.22;59.43
69780;BME280;57052;55.602;38.096;2022-12-20T12:20:51;100644.94;;;-3.33;59.42
69780;BME280;57052;55.602;38.096;2022-12-20T12:23:43;100650.22;;;-3.33;60.04
69780;BME280;57052;55.602;38.096;2022-12-20T12:26:24;100643.44;;;-3.35;60.42
69780;BME280;57052;55.602;38.096;2022-12-20T12:28:56;100643.63;;;-3.37;61.01
69780;BME280;57052;55.602;38.096;2022-12-20T12:31:52;100645.78;;;-3.40;60.66
69780;BME280;57052;55.602;38.096;2022-12-20T12:44:33;100640.81;;;-3.43;61.49
69780;BME280;57052;55.602;38.096;2022-12-20T12:47:15;100625.97;;;-3.60;61.08
69780;BME280;57052;55.602;38.096;2022-12-20T12:49:42;100618.75;;;-3.66;61.91
69780;BME280;57052;55.602;38.096;2022-12-20T12:52:27;100638.72;;;-3.56;60.53
69780;BME280;57052;55.602;38.096;2022-12-20T12:54:53;100627.97;;;-3.62;61.77
69780;BME280;57052;55.602;38.096;2022-12-20T12:57:18;100637.25;;;-3.66;61.64
69780;BME280;57052;55.602;38.096;2022-12-20T12:59:49;100639.06;;;-3.67;61.15
69780;BME280;57052;55.602;38.096;2022-12-20T13:09:59;100599.13;;;-3.96;61.58
69780;BME280;57052;55.602;38.096;2022-12-20T13:18:00;100641.91;;;-3.93;61.39
69780;BME280;57052;55.602;38.096;2022-12-20T13:20:32;100580.78;;;-4.30;61.52
69780;BME280;57052;55.602;38.096;2022-12-20T13:25:44;100631.50;;;-3.94;62.44
69780;BME280;57052;55.602;38.096;2022-12-20T13:33:42;100632.66;;;-3.88;62.15
69780;BME280;57052;55.602;38.096;2022-12-20T13:38:57;100635.31;;;-3.97;61.35
69780;BME280;57052;55.602;38.096;2022-12-20T13:41:33;100631.31;;;-3.93;62.13
69780;BME280;57052;55.602;38.096;2022-12-20T13:49:10;100615.44;;;-4.01;62.16
69780;BME280;57052;55.602;38.096;2022-12-20T13:51:37;100633.97;;;-3.93;62.20
69780;BME280;57052;55.602;38.096;2022-12-20T13:54:07;100613.81;;;-3.94;62.27
69780;BME280;57052;55.602;38.096;2022-12-20T13:56:48;100627.84;;;-3.93;62.51
69780;BME280;57052;55.602;38.096;2022-12-20T13:59:24;100627.50;;;-3.98;62.51
69780;BME280;57052;55.602;38.096;2022-12-20T14:01:57;100625.69;;;-3.98;62.66
69780;BME280;57052;55.602;38.096;2022-12-20T14:04:25;100630.34;;;-4.00;62.75
69780;BME280;57052;55.602;38.096;2022-12-20T14:06:56;100632.81;;;-3.98;62.61
69780;BME280;57052;55.602;38.096;2022-12-20T14:09:37;100632.66;;;-4.05;62.46
69780;BME280;57052;55.602;38.096;2022-12-20T14:12:09;100630.19;;;-4.14;63.07
69780;BME280;57052;55.602;38.096;2022-12-20T14:14:46;100632.63;;;-4.21;62.26
69780;BME280;57052;55.602;38.096;2022-12-20T14:17:28;100620.75;;;-4.25;62.61
69780;BME280;57052;55.602;38.096;2022-12-20T14:20:05;100629.50;;;-4.24;62.31
69780;BME280;57052;55.602;38.096;2022-12-20T14:22:31;100623.22;;;-4.23;63.09
69780;BME280;57052;55.602;38.096;2022-12-20T14:24:59;100616.78;;;-4.21;62.94
69780;BME280;57052;55.602;38.096;2022-12-20T14:27:28;100613.31;;;-4.13;62.97
69780;BME280;57052;55.602;38.096;2022-12-20T14:29:57;100617.44;;;-4.11;63.09
69780;BME280;57052;55.602;38.096;2022-12-20T14:32:24;100614.13;;;-4.21;63.37
69780;BME280;57052;55.602;38.096;2022-12-20T14:34:51;100612.50;;;-4.22;63.30